Terminal Aerodrome Forecast
Issued by NWS

Home | Current Version | Previous Version | Graphics & Text | Print | Product List | Glossary On
Versions: 1 2 3 4 5 6 7 8 9 10 11 12 13 14 15 16 17 18 19
360
FTUS43 KGRB 290522
TAFMTW
TAF
KMTW 290522Z 2906/3006 02005KT P6SM VCSH BKN035 OVC060
      TEMPO 2906/2910 5SM -SHRA BR SCT035 OVC060
     FM291000 01007KT P6SM VCSH OVC050
     FM291500 05008KT P6SM VCSH OVC050 PROB30 2915/2920 5SM -SHRA
      BKN035
     FM292000 06010KT P6SM VCSH OVC060
     FM300100 04006KT P6SM SCT060 BKN120=

USA.gov is the U.S. government's official web portal to all federal, state and local government web resources and services.